Time;durP1;ratioP1;P1;durP2;ratioP2;P2;SDS_P1;SDS_P2;PMS_P1;PMS_P2;Temp;Humidity;BMP_temperature;BMP_pressure;BME280_temperature;BME280_humidity;BME280_pressure;Samples;Min_cycle;Max_cycle;Signal;HPM_P1;HPM_P2
2023/09/07 00:24:10;;;;;;;;;;;;;;;;;;;;;
2023/09/07 01:27:14;;;;;;;;;;;;;;;;;;;;;
2023/09/07 04:02:17;;;;;;;;;;;;;;;12.49;66.48;100025.60;108270;1258;94699;-90
2023/09/07 04:04:51;;;;;;;;;;;;;;;12.50;66.56;100028.77;108088;1264;110016;-91
2023/09/07 04:07:18;;;;;;;;;;;;;;;12.48;66.49;100029.96;108158;1263;94457;-91
2023/09/07 04:09:48;;;;;;;;;;;;;;;12.48;66.59;100031.91;108094;1262;107722;-90
2023/09/07 04:12:16;;;;;;;;;;;;;;;12.49;66.52;100029.74;108141;1262;94414;-90
2023/09/07 04:14:45;;;;;;;;;;;;;;;12.49;66.50;100029.88;108070;1263;94737;-90
2023/09/07 04:17:12;;;;;;;;;;;;;;;12.52;66.62;100030.60;108128;1263;109363;-90
2023/09/07 04:19:39;;;;;;;;;;;;;;;12.53;66.58;100030.70;108081;1263;94435;-89
2023/09/07 04:22:06;;;;;;;;;;;;;;;12.54;66.62;100030.70;108060;1263;95782;-90
2023/09/07 04:24:34;;;;;;;;;;;;;;;12.53;66.58;100033.73;108116;1263;94399;-90
2023/09/07 04:27:01;;;;;;;;;;;;;;;12.54;66.64;100038.15;108055;1263;94361;-90
2023/09/07 04:29:28;;;;;;;;;;;;;;;12.55;66.53;100039.16;108074;1264;94512;-90
2023/09/07 04:31:55;;;;;;;;;;;;;;;12.57;66.63;100039.91;108237;1262;94351;-91
2023/09/07 04:34:22;;;;;;;;;;;;;;;12.58;66.77;100038.92;108168;1262;95829;-90
2023/09/07 04:36:49;;;;;;;;;;;;;;;12.60;66.72;100039.19;108046;1262;94320;-92
2023/09/07 04:39:16;;;;;;;;;;;;;;;12.61;66.71;100041.77;108185;1262;94350;-92
2023/09/07 04:41:49;;;;;;;;;;;;;;;12.62;66.85;100041.30;108231;1262;94345;-93
2023/09/07 04:44:15;;;;;;;;;;;;;;;12.63;66.83;100043.22;108024;1264;96025;-92
2023/09/07 04:46:42;;;;;;;;;;;;;;;12.64;66.84;100044.58;108189;1264;94744;-91
2023/09/07 04:49:10;;;;;;;;;;;;;;;12.69;66.96;100044.12;108209;1262;94404;-90
2023/09/07 04:51:37;;;;;;;;;;;;;;;12.72;66.95;100045.52;108171;1262;94273;-90
2023/09/07 04:54:06;;;;;;;;;;;;;;;12.72;66.86;100046.55;108100;1263;94431;-90
2023/09/07 04:56:32;;;;;;;;;;;;;;;12.75;67.02;100046.88;108100;1264;94484;-91
2023/09/07 04:59:00;;;;;;;;;;;;;;;12.81;67.11;100047.58;108121;1262;94315;-92
2023/09/07 05:01:27;;;;;;;;;;;;;;;12.87;67.13;100047.39;108194;1262;94461;-91
2023/09/07 05:03:54;;;;;;;;;;;;;;;12.92;67.12;100051.11;108250;1262;94412;-93
2023/09/07 05:06:22;;;;;;;;;;;;;;;12.97;67.10;100053.84;108200;1263;94686;-92
2023/09/07 05:08:49;;;;;;;;;;;;;;;12.98;67.16;100055.04;108221;1262;94316;-91
2023/09/07 05:11:16;;;;;;;;;;;;;;;12.97;67.16;100055.42;108203;1262;94688;-91
2023/09/07 05:13:46;;;;;;;;;;;;;;;13.02;67.30;100055.48;108170;1262;94292;-92
2023/09/07 05:16:13;;;;;;;;;;;;;;;13.09;67.34;100059.98;108078;1263;94740;-91
2023/09/07 05:18:40;;;;;;;;;;;;;;;13.16;67.47;100063.59;108193;1263;109840;-91
2023/09/07 05:21:11;;;;;;;;;;;;;;;13.23;67.41;100061.16;108138;1262;94534;-91
2023/09/07 05:23:38;;;;;;;;;;;;;;;13.30;67.49;100063.36;108148;1264;107627;-91
2023/09/07 05:26:05;;;;;;;;;;;;;;;13.36;67.51;100063.63;108223;1262;94333;-92
2023/09/07 05:28:31;;;;;;;;;;;;;;;13.43;67.44;100060.02;108184;1263;94238;-91
2023/09/07 05:30:59;;;;;;;;;;;;;;;13.50;67.70;100064.50;108059;1262;94681;-91
2023/09/07 05:33:26;;;;;;;;;;;;;;;13.57;67.78;100062.97;108238;1262;95529;-91
2023/09/07 05:35:52;;;;;;;;;;;;;;;13.64;67.87;100063.36;108130;1262;94377;-91
2023/09/07 05:38:20;;;;;;;;;;;;;;;13.71;67.95;100060.23;108261;1262;101613;-89
2023/09/07 05:40:50;;;;;;;;;;;;;;;13.77;68.08;100062.30;108154;1262;110694;-91
2023/09/07 05:43:16;;;;;;;;;;;;;;;13.85;68.04;100066.06;108203;1262;95285;-91
2023/09/07 05:45:43;;;;;;;;;;;;;;;13.92;68.02;100066.64;108157;1263;94313;-92
2023/09/07 05:48:10;;;;;;;;;;;;;;;14.00;68.14;100069.23;108209;1262;94387;-91
2023/09/07 05:50:37;;;;;;;;;;;;;;;14.08;68.14;100075.13;108225;1262;94633;-90
2023/09/07 05:53:05;;;;;;;;;;;;;;;14.14;68.01;100078.83;108121;1262;94370;-91
2023/09/07 05:55:31;;;;;;;;;;;;;;;14.18;68.07;100081.95;108141;1262;94473;-91
2023/09/07 05:57:59;;;;;;;;;;;;;;;14.20;68.12;100083.52;108205;1262;94311;-91
2023/09/07 06:00:25;;;;;;;;;;;;;;;14.26;68.16;100082.77;108116;1262;94270;-92
2023/09/07 06:02:52;;;;;;;;;;;;;;;14.32;68.15;100082.87;108161;1262;94392;-91
2023/09/07 06:05:19;;;;;;;;;;;;;;;14.37;68.21;100085.88;108304;1262;94296;-92
2023/09/07 06:07:47;;;;;;;;;;;;;;;14.44;68.26;100085.42;108274;1262;107934;-91
2023/09/07 06:10:14;;;;;;;;;;;;;;;14.51;68.41;100085.23;108264;1262;94402;-91
2023/09/07 06:12:41;;;;;;;;;;;;;;;14.59;68.38;100088.78;108241;1266;94266;-91
2023/09/07 06:15:09;;;;;;;;;;;;;;;14.66;68.38;100087.40;108240;1262;94251;-92
2023/09/07 06:17:35;;;;;;;;;;;;;;;14.73;68.46;100084.39;108253;1262;94212;-91
2023/09/07 06:20:02;;;;;;;;;;;;;;;14.81;68.44;100083.25;108252;1262;94357;-91
2023/09/07 06:22:30;;;;;;;;;;;;;;;14.90;68.48;100086.58;108211;1262;94322;-91
2023/09/07 06:24:57;;;;;;;;;;;;;;;14.98;68.49;100086.88;108242;1262;94323;-91
2023/09/07 06:27:23;;;;;;;;;;;;;;;15.06;68.50;100086.64;108224;1262;94315;-91
2023/09/07 06:29:50;;;;;;;;;;;;;;;15.14;68.59;100091.04;108221;1262;94612;-90
2023/09/07 06:32:18;;;;;;;;;;;;;;;15.22;68.43;100093.27;108274;1262;94266;-92
2023/09/07 06:34:45;;;;;;;;;;;;;;;15.29;68.40;100091.27;108247;1262;94368;-91
2023/09/07 06:37:12;;;;;;;;;;;;;;;15.38;68.53;100092.45;108066;1263;94359;-92
2023/09/07 06:39:39;;;;;;;;;;;;;;;15.46;68.71;100087.69;108214;1262;94392;-91
2023/09/07 06:42:05;;;;;;;;;;;;;;;15.53;68.50;100087.88;108188;1262;94490;-92
2023/09/07 06:44:34;;;;;;;;;;;;;;;15.60;68.50;100088.21;108213;1264;94255;-91
2023/09/07 06:47:00;;;;;;;;;;;;;;;15.67;68.40;100090.37;108211;1262;94393;-91
2023/09/07 06:49:29;;;;;;;;;;;;;;;15.75;68.63;100087.30;108121;1263;94366;-91
2023/09/07 06:51:56;;;;;;;;;;;;;;;15.84;68.81;100086.94;108242;1262;94322;-91
2023/09/07 06:54:23;;;;;;;;;;;;;;;15.92;68.72;100085.12;108228;1262;94320;-91
2023/09/07 06:56:50;;;;;;;;;;;;;;;16.00;68.79;100085.73;108201;1262;94218;-92
2023/09/07 06:59:17;;;;;;;;;;;;;;;16.06;68.71;100085.80;108247;1262;96096;-92
2023/09/07 07:01:43;;;;;;;;;;;;;;;16.13;68.80;100087.38;108237;1262;94364;-92
2023/09/07 07:04:10;;;;;;;;;;;;;;;16.21;68.91;100086.37;108184;1262;94407;-92
2023/09/07 07:06:38;;;;;;;;;;;;;;;16.29;68.94;100091.13;108205;1262;94278;-90
2023/09/07 07:09:05;;;;;;;;;;;;;;;16.35;68.91;100093.83;108272;1262;94332;-92
2023/09/07 07:11:31;;;;;;;;;;;;;;;16.43;68.87;100095.41;108219;1262;94267;-91
2023/09/07 07:13:58;;;;;;;;;;;;;;;16.50;68.80;100096.73;108239;1262;94452;-91
2023/09/07 07:16:25;;;;;;;;;;;;;;;16.57;68.88;100099.06;108217;1262;94428;-92
2023/09/07 07:18:52;;;;;;;;;;;;;;;16.62;68.71;100094.89;108220;1262;94290;-91
2023/09/07 07:21:19;;;;;;;;;;;;;;;16.68;68.89;100095.52;108231;1262;94243;-91
2023/09/07 07:23:46;;;;;;;;;;;;;;;16.73;68.75;100097.80;108289;1262;94289;-91
2023/09/07 07:26:12;;;;;;;;;;;;;;;16.79;68.68;100094.42;108217;1262;107549;-91
2023/09/07 07:28:39;;;;;;;;;;;;;;;16.87;68.72;100094.16;108151;1263;94396;-91
2023/09/07 07:31:09;;;;;;;;;;;;;;;16.96;68.61;100094.52;108239;1262;94202;-91
2023/09/07 07:33:37;;;;;;;;;;;;;;;17.02;68.69;100089.56;108152;1262;110321;-91
2023/09/07 07:36:04;;;;;;;;;;;;;;;17.10;68.98;100092.61;108243;1262;94317;-92
2023/09/07 07:38:31;;;;;;;;;;;;;;;17.19;68.84;100094.23;108205;1262;107699;-92
2023/09/07 07:40:57;;;;;;;;;;;;;;;17.24;68.70;100091.48;108222;1262;94348;-91
2023/09/07 07:43:24;;;;;;;;;;;;;;;17.30;68.76;100093.63;108247;1262;94377;-92
2023/09/07 07:45:52;;;;;;;;;;;;;;;17.38;68.79;100093.11;108209;1262;94356;-91
2023/09/07 07:48:18;;;;;;;;;;;;;;;17.45;68.69;100096.91;108134;1262;94309;-91
2023/09/07 07:50:45;;;;;;;;;;;;;;;17.51;68.66;100099.36;108200;1262;94502;-91
2023/09/07 07:53:12;;;;;;;;;;;;;;;17.57;68.76;100099.05;108282;1262;95559;-92
2023/09/07 07:55:40;;;;;;;;;;;;;;;17.64;68.82;100094.85;108220;1262;109920;-91
2023/09/07 07:58:08;;;;;;;;;;;;;;;17.71;68.71;100101.66;108242;1262;94219;-92
2023/09/07 08:00:37;;;;;;;;;;;;;;;17.78;68.69;100100.54;108215;1262;107472;-91
2023/09/07 08:03:05;;;;;;;;;;;;;;;17.88;68.78;100099.52;108127;1262;94576;-91
2023/09/07 08:05:33;;;;;;;;;;;;;;;17.94;68.83;100100.03;108248;1262;94262;-91
2023/09/07 08:08:00;;;;;;;;;;;;;;;18.02;68.92;100102.58;108233;1262;109833;-91
2023/09/07 08:10:26;;;;;;;;;;;;;;;18.11;68.72;100104.14;108207;1262;94366;-91
2023/09/07 08:12:57;;;;;;;;;;;;;;;18.21;68.83;100108.83;108224;1262;106826;-91
2023/09/07 08:15:24;;;;;;;;;;;;;;;18.27;68.81;100105.27;108230;1262;94322;-92
2023/09/07 08:17:51;;;;;;;;;;;;;;;18.31;68.89;100106.34;108266;1263;94204;-92
2023/09/07 08:20:18;;;;;;;;;;;;;;;18.37;68.85;100107.40;108184;1263;94341;-92
2023/09/07 08:22:45;;;;;;;;;;;;;;;18.46;68.80;100105.05;108088;1262;197135;-91
2023/09/07 08:25:15;;;;;;;;;;;;;;;18.55;68.83;100107.66;108250;1262;94397;-90
2023/09/07 08:27:47;;;;;;;;;;;;;;;18.67;68.77;100107.27;108236;1262;94408;-91
2023/09/07 08:30:15;;;;;;;;;;;;;;;18.72;68.78;100109.14;108144;1264;94321;-92
2023/09/07 08:32:42;;;;;;;;;;;;;;;18.80;68.62;100106.50;108202;1262;109935;-91
2023/09/07 08:35:12;;;;;;;;;;;;;;;18.82;68.65;100101.46;108241;1262;94354;-92
2023/09/07 08:37:42;;;;;;;;;;;;;;;18.87;68.84;100099.95;108216;1262;107667;-91
2023/09/07 08:40:09;;;;;;;;;;;;;;;18.98;68.71;100100.40;108121;1262;94487;-91
2023/09/07 08:42:36;;;;;;;;;;;;;;;19.09;68.66;100099.57;108252;1262;94277;-91
2023/09/07 08:45:06;;;;;;;;;;;;;;;19.17;68.61;100099.19;108175;1264;94328;-91
2023/09/07 08:47:37;;;;;;;;;;;;;;;19.23;68.49;100106.56;108105;1263;94810;-91
2023/09/07 08:50:07;;;;;;;;;;;;;;;19.29;68.33;100105.46;108196;1262;107681;-91
2023/09/07 08:52:34;;;;;;;;;;;;;;;19.36;68.49;100107.02;108183;1264;94233;-92
2023/09/07 08:55:04;;;;;;;;;;;;;;;19.43;68.41;100103.25;108258;1262;94265;-91
2023/09/07 08:57:31;;;;;;;;;;;;;;;19.47;68.37;100103.27;108232;1262;109796;-92
2023/09/07 08:59:58;;;;;;;;;;;;;;;19.52;68.27;100105.67;108233;1264;94328;-91
2023/09/07 09:02:26;;;;;;;;;;;;;;;19.63;68.28;100105.35;108166;1264;95454;-91
2023/09/07 09:04:53;;;;;;;;;;;;;;;19.72;68.18;100100.70;108192;1263;94222;-91
2023/09/07 09:07:20;;;;;;;;;;;;;;;19.76;68.09;100095.48;108239;1262;94436;-91
2023/09/07 09:09:48;;;;;;;;;;;;;;;19.81;68.15;100095.39;108226;1262;109961;-92
2023/09/07 09:12:15;;;;;;;;;;;;;;;19.86;68.03;100098.03;108207;1262;94658;-92
2023/09/07 09:14:44;;;;;;;;;;;;;;;19.90;68.06;100092.61;108154;1262;94275;-91
2023/09/07 09:17:15;;;;;;;;;;;;;;;19.92;67.92;100094.55;108248;1262;94267;-91
2023/09/07 09:19:41;;;;;;;;;;;;;;;19.95;67.76;100100.39;108211;1266;94241;-91
2023/09/07 09:22:08;;;;;;;;;;;;;;;20.05;67.89;100098.16;108218;1262;94403;-92
2023/09/07 09:24:35;;;;;;;;;;;;;;;20.13;67.99;100096.23;108212;1262;94328;-91
2023/09/07 09:27:02;;;;;;;;;;;;;;;20.15;67.83;100098.36;108235;1262;94245;-92
2023/09/07 09:29:29;;;;;;;;;;;;;;;20.15;67.55;100094.33;108209;1262;94256;-92
2023/09/07 09:31:56;;;;;;;;;;;;;;;20.16;67.64;100091.95;108246;1262;94296;-92
2023/09/07 09:34:23;;;;;;;;;;;;;;;20.22;67.49;100093.30;108152;1262;94677;-92
2023/09/07 09:36:50;;;;;;;;;;;;;;;20.31;67.38;100091.91;108292;1262;95352;-91
2023/09/07 09:39:23;;;;;;;;;;;;;;;20.36;67.51;100089.48;108212;1266;94552;-92
2023/09/07 09:41:51;;;;;;;;;;;;;;;20.42;67.51;100088.17;108122;1262;94325;-91
2023/09/07 09:44:20;;;;;;;;;;;;;;;20.51;67.48;100089.09;108201;1262;107711;-91
2023/09/07 09:46:49;;;;;;;;;;;;;;;20.58;67.50;100090.56;108246;1262;94387;-91
2023/09/07 09:49:17;;;;;;;;;;;;;;;20.61;67.34;100089.55;108144;1262;107981;-91
2023/09/07 09:51:45;;;;;;;;;;;;;;;20.66;67.27;100090.84;108068;1263;94363;-92
2023/09/07 09:54:11;;;;;;;;;;;;;;;20.74;67.09;100094.09;108237;1262;94395;-92
2023/09/07 09:56:38;;;;;;;;;;;;;;;20.83;66.98;100091.42;108217;1262;94392;-92
2023/09/07 09:59:05;;;;;;;;;;;;;;;20.84;66.86;100093.80;108222;1262;94426;-92
2023/09/07 10:01:37;;;;;;;;;;;;;;;20.88;67.04;100095.17;108198;1262;94307;-92
2023/09/07 10:04:04;;;;;;;;;;;;;;;20.96;66.94;100100.58;108220;1262;94196;-91
2023/09/07 10:06:31;;;;;;;;;;;;;;;21.00;66.78;100099.27;108233;1263;94339;-92
2023/09/07 10:09:06;;;;;;;;;;;;;;;21.01;66.53;100102.39;108241;1262;94320;-92
2023/09/07 10:11:34;;;;;;;;;;;;;;;21.00;66.53;100102.52;108242;1262;94282;-92
2023/09/07 10:14:05;;;;;;;;;;;;;;;20.99;66.37;100101.34;108098;1262;108700;-91
2023/09/07 10:16:45;;;;;;;;;;;;;;;20.99;66.43;100096.25;108247;1262;94465;-91
2023/09/07 10:19:16;;;;;;;;;;;;;;;21.03;66.36;100089.73;108255;1262;94319;-91
2023/09/07 10:21:43;;;;;;;;;;;;;;;21.08;66.17;100091.09;108214;1263;110024;-92
2023/09/07 10:24:10;;;;;;;;;;;;;;;21.06;66.00;100088.73;108265;1262;94315;-91
2023/09/07 10:26:37;;;;;;;;;;;;;;;21.07;66.00;100089.52;108205;1262;94303;-92
2023/09/07 10:29:05;;;;;;;;;;;;;;;21.10;66.15;100087.20;108237;1262;94365;-92
2023/09/07 10:31:31;;;;;;;;;;;;;;;21.19;65.84;100082.77;108263;1262;94199;-91
2023/09/07 10:34:22;;;;;;;;;;;;;;;21.24;65.39;100081.56;108278;1262;110090;-92
2023/09/07 10:36:55;;;;;;;;;;;;;;;21.26;65.55;100085.06;108251;1262;95067;-92
2023/09/07 10:39:22;;;;;;;;;;;;;;;21.30;65.70;100081.10;108220;1262;105452;-92
2023/09/07 10:41:48;;;;;;;;;;;;;;;21.37;65.62;100081.87;108211;1262;94245;-91
2023/09/07 10:44:15;;;;;;;;;;;;;;;21.43;65.51;100079.06;108227;1265;94260;-92
2023/09/07 10:46:42;;;;;;;;;;;;;;;21.47;65.44;100077.58;108235;1262;94831;-92
2023/09/07 10:49:11;;;;;;;;;;;;;;;21.47;65.39;100077.98;108202;1262;94384;-92
2023/09/07 10:51:43;;;;;;;;;;;;;;;21.45;65.26;100077.29;108224;1262;94238;-92
2023/09/07 10:54:17;;;;;;;;;;;;;;;21.50;64.98;100073.67;108242;1266;94320;-90
2023/09/07 10:56:44;;;;;;;;;;;;;;;21.58;65.09;100077.02;108214;1262;109846;-91
2023/09/07 10:59:11;;;;;;;;;;;;;;;21.59;65.16;100073.61;108251;1262;94293;-92
2023/09/07 11:01:38;;;;;;;;;;;;;;;21.60;64.72;100066.51;108227;1262;107258;-93
2023/09/07 11:04:08;;;;;;;;;;;;;;;21.62;64.81;100071.56;108199;1262;94249;-92
2023/09/07 11:06:34;;;;;;;;;;;;;;;21.63;64.79;100066.75;108230;1262;94368;-91
2023/09/07 11:09:04;;;;;;;;;;;;;;;21.62;64.86;100067.19;108248;1262;95466;-91
2023/09/07 11:11:32;;;;;;;;;;;;;;;21.64;64.78;100068.08;108165;1262;94349;-92
2023/09/07 11:14:00;;;;;;;;;;;;;;;21.69;64.52;100070.64;108198;1262;107722;-91
2023/09/07 11:16:28;;;;;;;;;;;;;;;21.73;64.68;100065.37;108209;1262;94312;-92
2023/09/07 11:18:55;;;;;;;;;;;;;;;21.76;64.52;100065.27;108247;1262;94292;-92
2023/09/07 11:21:23;;;;;;;;;;;;;;;21.79;64.63;100067.71;108220;1267;94318;-93
2023/09/07 11:23:50;;;;;;;;;;;;;;;21.80;64.50;100073.33;108254;1262;94341;-92
2023/09/07 11:26:17;;;;;;;;;;;;;;;21.82;64.37;100069.80;108168;1262;94325;-92
2023/09/07 11:28:47;;;;;;;;;;;;;;;21.84;64.37;100063.83;108221;1262;94307;-91
2023/09/07 11:31:18;;;;;;;;;;;;;;;21.86;64.29;100068.71;108248;1262;94300;-90
2023/09/07 11:33:46;;;;;;;;;;;;;;;21.89;64.32;100063.04;108141;1262;109719;-90
2023/09/07 11:36:12;;;;;;;;;;;;;;;21.92;64.14;100063.10;108169;1262;94692;-90
2023/09/07 11:38:42;;;;;;;;;;;;;;;21.95;63.90;100061.09;108226;1262;94305;-89
2023/09/07 11:41:09;;;;;;;;;;;;;;;22.00;63.94;100062.70;108223;1262;94450;-90
2023/09/07 11:43:37;;;;;;;;;;;;;;;22.05;63.98;100065.33;108175;1264;94368;-89
2023/09/07 11:46:04;;;;;;;;;;;;;;;22.08;63.88;100061.90;108233;1262;109632;-89
2023/09/07 11:48:33;;;;;;;;;;;;;;;22.08;63.75;100061.95;108230;1262;94283;-90
2023/09/07 11:51:00;;;;;;;;;;;;;;;22.12;63.36;100059.70;108218;1262;107225;-89
2023/09/07 11:53:27;;;;;;;;;;;;;;;22.18;63.76;100062.14;108222;1262;94379;-90
2023/09/07 11:55:54;;;;;;;;;;;;;;;22.17;63.52;100054.13;108239;1263;94185;-90
2023/09/07 11:58:21;;;;;;;;;;;;;;;22.17;63.20;100053.05;108227;1262;94329;-91
2023/09/07 12:00:47;;;;;;;;;;;;;;;22.18;63.52;100052.25;108213;1262;94325;-90
2023/09/07 12:03:14;;;;;;;;;;;;;;;22.18;63.56;100050.58;108197;1262;94224;-89
2023/09/07 12:05:42;;;;;;;;;;;;;;;22.20;63.48;100051.77;108317;1262;94399;-90
2023/09/07 12:08:09;;;;;;;;;;;;;;;22.23;63.42;100051.23;108264;1262;110494;-89
2023/09/07 12:10:36;;;;;;;;;;;;;;;22.25;63.24;100046.17;108229;1262;94385;-91
2023/09/07 12:13:03;;;;;;;;;;;;;;;22.25;63.18;100047.80;108223;1262;94220;-90
2023/09/07 12:15:29;;;;;;;;;;;;;;;22.29;63.38;100046.48;108212;1262;94254;-90
2023/09/07 12:17:57;;;;;;;;;;;;;;;22.31;63.24;100048.09;108248;1262;94367;-90
2023/09/07 12:20:24;;;;;;;;;;;;;;;22.34;63.17;100050.17;108244;1262;94428;-90
2023/09/07 12:22:51;;;;;;;;;;;;;;;22.38;62.96;100050.05;108207;1262;94294;-90
2023/09/07 12:25:19;;;;;;;;;;;;;;;22.41;63.02;100042.70;108070;1262;94436;-91
2023/09/07 12:27:46;;;;;;;;;;;;;;;22.42;62.86;100046.36;108184;1262;94419;-90
2023/09/07 12:30:18;;;;;;;;;;;;;;;22.45;62.62;100041.41;108213;1262;94532;-91
2023/09/07 12:32:46;;;;;;;;;;;;;;;22.49;62.63;100037.56;108066;1262;109463;-89
2023/09/07 12:35:12;;;;;;;;;;;;;;;22.50;62.61;100038.55;108134;1262;94362;-90
2023/09/07 12:37:39;;;;;;;;;;;;;;;22.49;62.49;100036.68;108229;1262;94418;-89
2023/09/07 12:40:13;;;;;;;;;;;;;;;22.47;62.45;100037.45;108133;1262;94452;-90
2023/09/07 12:42:40;;;;;;;;;;;;;;;22.43;62.62;100034.71;108274;1262;94273;-90
2023/09/07 12:45:10;;;;;;;;;;;;;;;22.44;62.41;100031.77;108229;1262;109817;-92
2023/09/07 12:47:37;;;;;;;;;;;;;;;22.45;62.54;100030.54;108173;1262;94248;-90
2023/09/07 12:50:05;;;;;;;;;;;;;;;22.49;62.26;100028.20;108222;1262;94357;-90
2023/09/07 12:52:32;;;;;;;;;;;;;;;22.52;62.15;100023.33;108224;1262;94559;-91
2023/09/07 12:55:02;;;;;;;;;;;;;;;22.50;62.13;100019.80;108253;1263;94299;-90
2023/09/07 12:57:29;;;;;;;;;;;;;;;22.50;62.14;100022.26;108152;1263;109326;-92
2023/09/07 12:59:56;;;;;;;;;;;;;;;22.53;62.07;100018.88;108216;1263;94309;-92
2023/09/07 13:02:22;;;;;;;;;;;;;;;22.52;62.11;100022.63;108113;1262;94314;-92
2023/09/07 13:04:49;;;;;;;;;;;;;;;22.53;61.87;100015.48;108117;1262;94352;-92
2023/09/07 13:07:17;;;;;;;;;;;;;;;22.54;61.85;100011.73;108252;1262;94287;-91
2023/09/07 13:09:45;;;;;;;;;;;;;;;22.54;61.87;100017.86;108176;1262;94409;-91
2023/09/07 13:12:12;;;;;;;;;;;;;;;22.55;61.42;100017.58;108248;1262;94360;-92
2023/09/07 13:14:38;;;;;;;;;;;;;;;22.55;61.74;100018.70;108238;1262;94341;-92
2023/09/07 13:17:09;;;;;;;;;;;;;;;22.54;61.72;100017.34;108170;1262;94304;-91
2023/09/07 13:19:36;;;;;;;;;;;;;;;22.54;61.49;100016.91;108111;1262;94585;-91
2023/09/07 13:22:06;;;;;;;;;;;;;;;22.56;61.60;100010.95;108185;1262;94359;-91
2023/09/07 13:24:33;;;;;;;;;;;;;;;22.59;61.68;100008.59;108278;1263;94821;-92
2023/09/07 13:27:00;;;;;;;;;;;;;;;22.64;61.65;100005.63;108217;1262;94230;-92
2023/09/07 13:29:26;;;;;;;;;;;;;;;22.66;61.41;100005.03;108214;1262;94325;-92
2023/09/07 13:31:53;;;;;;;;;;;;;;;22.68;61.34;100008.80;108242;1262;94267;-91
2023/09/07 13:34:23;;;;;;;;;;;;;;;22.69;61.23;100005.75;108246;1262;94365;-91
2023/09/07 13:36:56;;;;;;;;;;;;;;;22.70;61.24;100002.42;108223;1262;94239;-92
2023/09/07 13:39:23;;;;;;;;;;;;;;;22.71;61.16;99999.88;108212;1262;107586;-92
2023/09/07 13:41:49;;;;;;;;;;;;;;;22.76;61.10;99995.45;108141;1262;94406;-93
2023/09/07 13:44:16;;;;;;;;;;;;;;;22.76;61.10;99991.07;108241;1263;94293;-90
2023/09/07 13:46:44;;;;;;;;;;;;;;;22.75;60.94;99994.10;108246;1262;94289;-90
2023/09/07 13:49:12;;;;;;;;;;;;;;;22.74;61.14;99994.38;108216;1262;94418;-90
2023/09/07 13:51:39;;;;;;;;;;;;;;;22.75;61.12;99989.17;108223;1262;94391;-90
2023/09/07 13:54:09;;;;;;;;;;;;;;;22.76;61.13;99989.08;108132;1262;94846;-90
2023/09/07 13:56:36;;;;;;;;;;;;;;;22.78;60.97;99986.33;108244;1262;94304;-89
2023/09/07 13:59:04;;;;;;;;;;;;;;;22.80;61.01;99987.76;108213;1262;94334;-89
2023/09/07 14:01:31;;;;;;;;;;;;;;;22.81;60.92;99983.83;108190;1264;94412;-89
2023/09/07 14:03:58;;;;;;;;;;;;;;;22.82;60.91;99983.38;108119;1262;94356;-90
2023/09/07 14:06:24;;;;;;;;;;;;;;;22.83;60.87;99978.02;108189;1262;95034;-89
2023/09/07 14:08:51;;;;;;;;;;;;;;;22.84;60.88;99977.60;108133;1266;94389;-89
2023/09/07 14:11:17;;;;;;;;;;;;;;;22.84;60.83;99978.05;108176;1264;94243;-90
2023/09/07 14:13:44;;;;;;;;;;;;;;;22.86;60.75;99974.29;108259;1262;94258;-90
2023/09/07 14:16:11;;;;;;;;;;;;;;;22.86;60.80;99976.63;108163;1262;95671;-89
2023/09/07 14:18:38;;;;;;;;;;;;;;;22.85;60.72;99977.40;108125;1262;94394;-89
2023/09/07 14:21:05;;;;;;;;;;;;;;;22.85;60.59;99976.52;108203;1262;94294;-90
2023/09/07 14:23:31;;;;;;;;;;;;;;;22.85;60.53;99975.11;108204;1262;94233;-89
2023/09/07 14:25:58;;;;;;;;;;;;;;;22.87;60.46;99972.18;108173;1263;94220;-89
2023/09/07 14:28:26;;;;;;;;;;;;;;;22.86;60.64;99972.77;108261;1262;94278;-90
2023/09/07 14:30:54;;;;;;;;;;;;;;;22.87;60.50;99971.06;108195;1266;110439;-90
2023/09/07 14:33:20;;;;;;;;;;;;;;;22.91;60.54;99973.38;108238;1264;94551;-90
2023/09/07 14:35:47;;;;;;;;;;;;;;;22.92;60.50;99968.92;108190;1263;94293;-89
2023/09/07 14:38:13;;;;;;;;;;;;;;;22.90;60.44;99967.27;108181;1262;94374;-90
2023/09/07 14:40:40;;;;;;;;;;;;;;;22.88;60.39;99966.80;108136;1262;94284;-89
2023/09/07 14:43:08;;;;;;;;;;;;;;;22.85;60.39;99963.38;108237;1266;94347;-89
2023/09/07 14:45:35;;;;;;;;;;;;;;;22.83;60.60;99963.16;108222;1262;94335;-90
2023/09/07 14:48:02;;;;;;;;;;;;;;;22.84;60.42;99960.69;108224;1263;94230;-90
2023/09/07 14:50:29;;;;;;;;;;;;;;;22.85;60.38;99954.33;108274;1262;94225;-90
2023/09/07 14:52:56;;;;;;;;;;;;;;;22.84;60.27;99953.71;108245;1264;109667;-90
2023/09/07 14:55:22;;;;;;;;;;;;;;;22.84;60.28;99953.49;108273;1262;94388;-89
2023/09/07 14:57:49;;;;;;;;;;;;;;;22.84;60.33;99955.48;108079;1262;94443;-90
2023/09/07 15:00:17;;;;;;;;;;;;;;;22.84;60.52;99953.17;108174;1266;94293;-89
2023/09/07 15:02:43;;;;;;;;;;;;;;;22.83;60.29;99949.48;108208;1264;94212;-89
2023/09/07 15:05:10;;;;;;;;;;;;;;;22.82;60.32;99949.01;108213;1262;94297;-90
2023/09/07 15:07:37;;;;;;;;;;;;;;;22.82;60.30;99951.88;108248;1266;94321;-90
2023/09/07 15:10:04;;;;;;;;;;;;;;;22.83;60.28;99956.11;108220;1262;94351;-90
2023/09/07 15:12:31;;;;;;;;;;;;;;;22.83;60.18;99951.85;108212;1264;94372;-89
2023/09/07 15:14:58;;;;;;;;;;;;;;;22.79;60.11;99949.96;108200;1262;94236;-90
2023/09/07 15:17:25;;;;;;;;;;;;;;;22.74;60.28;99947.52;108204;1262;94692;-89
2023/09/07 15:19:51;;;;;;;;;;;;;;;22.69;60.06;99945.41;108175;1266;94277;-90
2023/09/07 15:22:18;;;;;;;;;;;;;;;22.64;60.08;99942.99;108194;1264;94302;-90
2023/09/07 15:24:44;;;;;;;;;;;;;;;22.60;60.18;99941.96;108284;1266;94360;-90
2023/09/07 15:27:13;;;;;;;;;;;;;;;22.59;60.08;99943.39;108189;1264;94259;-90
2023/09/07 15:29:41;;;;;;;;;;;;;;;22.58;60.17;99941.92;108157;1262;107605;-90
2023/09/07 15:32:07;;;;;;;;;;;;;;;22.56;60.16;99941.41;108019;1264;96226;-89
2023/09/07 15:34:34;;;;;;;;;;;;;;;22.55;60.17;99938.27;108234;1266;94389;-89
2023/09/07 15:37:03;;;;;;;;;;;;;;;22.54;60.16;99934.95;108186;1262;94553;-89
2023/09/07 15:39:29;;;;;;;;;;;;;;;22.54;60.29;99935.48;108116;1264;94380;-90
2023/09/07 15:41:57;;;;;;;;;;;;;;;22.53;60.17;99936.52;108193;1263;94633;-92
2023/09/07 15:44:24;;;;;;;;;;;;;;;22.49;60.15;99937.23;108190;1262;94359;-89
2023/09/07 15:46:51;;;;;;;;;;;;;;;22.47;60.10;99937.50;108238;1264;94326;-90
2023/09/07 15:49:18;;;;;;;;;;;;;;;22.45;60.11;99940.41;108175;1262;94495;-89
2023/09/07 15:51:45;;;;;;;;;;;;;;;22.41;60.10;99936.69;108175;1262;94451;-89
2023/09/07 15:54:11;;;;;;;;;;;;;;;22.36;59.97;99933.63;108175;1263;94386;-88
2023/09/07 15:56:39;;;;;;;;;;;;;;;22.31;60.01;99936.44;108133;1268;94509;-90
2023/09/07 15:59:06;;;;;;;;;;;;;;;22.27;60.27;99934.39;108185;1263;109943;-90
2023/09/07 16:01:33;;;;;;;;;;;;;;;22.23;60.07;99939.16;108076;1268;94589;-90
2023/09/07 16:03:59;;;;;;;;;;;;;;;22.20;60.16;99940.55;108107;1264;95574;-90
2023/09/07 16:06:26;;;;;;;;;;;;;;;22.17;60.23;99938.85;108084;1262;94485;-89
2023/09/07 16:08:54;;;;;;;;;;;;;;;22.16;60.23;99936.11;108140;1264;94380;-90
2023/09/07 16:11:21;;;;;;;;;;;;;;;22.13;60.26;99936.77;108200;1262;94397;-91
2023/09/07 16:13:48;;;;;;;;;;;;;;;22.08;60.34;99935.55;108204;1262;94723;-89
2023/09/07 16:16:15;;;;;;;;;;;;;;;22.01;60.12;99936.01;108198;1262;95050;-91
2023/09/07 16:18:41;;;;;;;;;;;;;;;21.94;60.27;99936.98;108283;1263;94407;-91
2023/09/07 16:21:14;;;;;;;;;;;;;;;21.88;60.43;99935.45;108209;1262;109962;-91
2023/09/07 16:23:45;;;;;;;;;;;;;;;21.82;60.33;99940.10;108075;1263;95643;-90
2023/09/07 16:26:13;;;;;;;;;;;;;;;21.75;60.45;99937.06;108170;1264;107530;-91
2023/09/07 16:28:40;;;;;;;;;;;;;;;21.67;60.68;99936.16;108082;1264;94369;-91